Accueil
METAR-TAF:

METAR-TAF

Aéroports :

Base aérienne de Büchel

Büchel, Allemagne

latitude: 50-10N, longitude: 007-04E, altitude: 478 m

Observation

Le bulletin a été fait il y a 1 heure et 9 minutes, à 21:20 UTC
Vent 9 kt de sud-ouest
Température 6°C
Humidité 93%
Pression 1005 hPa
Visibilité: 9000 m

METAR: ETSB 262120Z AUTO 22009KT 9000 // ////// 06/05 Q1005 ///

Heure: 23:29 (22:29 UTC)

Prévision

Le bulletin a été fait il y a 5 heures et 9 minutes, à 17:20 UTC
Prévision valable du 26 à 18 UTC au 27 à 03 UTC
Vent 10 kt de sud-ouest
Visibilité 10 km ou plus
Quelques nuages à une hauteur de 1500 ft
Nuages fragmentés à une hauteur de 4000 ft
Temporairement
du 26 à 18 UTC au 27 à 03 UTC
Vent 10 kt de sud-ouest
Visibilité: 4000 m
Nuages fragmentés à une hauteur de 1000 ft, Cumulus congestus.
averses de pluie

TAF: ETSB 261720Z 2618/2703 22010KT 9999 NSW FEW015 BKN040 TEMPO 2618/2703 22010KT 4000 SHRA BKN010TCU BY ETGL

Observations et prévisions météorologiques de plus de 4000 aéroports (messages METAR et TAF).

Les stations disponibles sont représentées par des disques jaunes et rouges sur la carte.

Passer la souris dessus pour voir le nom de la station.

Cliquer dessus pour voir les observations et prévisions météorologiques.

Pour changer de carte: cliquez sur les boutons verts avec une croix noire pour zoomer, sur le bouton vert avec un tiret pour effectuer un zoom arrière, ou sur les flèches vertes pour les cartes adjacentes.


METAR-TAF: